Terminal Aerodrome Forecast
Issued by NWS

Home | Current Version | Previous Version | Text Only | Print | Product List | Glossary On
Versions: 1 2 3 4 5 6 7 8 9 10 11 12 13 14
000
FTUS44 KCRP 250535
TAFALI
TAF
KALI 250535Z 2506/2606 15008KT P6SM FEW015 SCT250
     FM251000 16006KT 5SM BR BKN011
     FM251400 18014G19KT P6SM BKN021
     FM251700 18016G25KT P6SM FEW035
     FM252100 15013KT P6SM SKC
     FM260500 16012KT P6SM BKN015=

USA.gov is the U.S. government's official web portal to all federal, state and local government web resources and services.